Time;durP1;ratioP1;P1;durP2;ratioP2;P2;SDS_P1;SDS_P2;PMS_P1;PMS_P2;Temp;Humidity;BMP_temperature;BMP_pressure;BME280_temperature;BME280_humidity;BME280_pressure;Samples;Min_cycle;Max_cycle;Signal;HPM_P1;HPM_P2
2021/11/18 00:01:21;;;;;;;31.92;17.23;;;;;;;8.51;100.00;101940.03;4937299;29;20086;-70
2021/11/18 00:04:08;;;;;;;36.22;20.27;;;;;;;8.30;100.00;101941.53;4937274;29;20035;-70
2021/11/18 00:06:54;;;;;;;39.10;18.80;;;;;;;8.30;100.00;101944.13;4935636;29;20023;-70
2021/11/18 00:09:39;;;;;;;36.60;19.88;;;;;;;8.16;100.00;101935.25;4937528;29;20040;-69
2021/11/18 00:12:26;;;;;;;33.05;18.50;;;;;;;7.90;100.00;101947.09;4923386;29;20060;-70
2021/11/18 00:15:14;;;;;;;40.45;20.65;;;;;;;7.82;100.00;101935.69;4936947;29;20112;-70
2021/11/18 00:18:04;;;;;;;33.33;18.90;;;;;;;7.98;100.00;101941.13;4922876;29;20470;-70
2021/11/18 00:21:02;;;;;;;28.95;17.88;;;;;;;8.07;100.00;101935.13;4922104;29;20043;-70
2021/11/18 00:23:50;;;;;;;30.88;17.95;;;;;;;8.14;100.00;101930.00;4935786;29;20457;-71
2021/11/18 00:26:37;;;;;;;33.60;18.90;;;;;;;8.28;100.00;101933.66;4935970;29;20419;-71
2021/11/18 00:29:23;;;;;;;34.45;21.58;;;;;;;8.30;100.00;101942.41;4935665;29;20439;-70
2021/11/18 00:32:09;;;;;;;61.13;34.45;;;;;;;8.28;100.00;101940.66;4923064;29;20115;-71
2021/11/18 00:34:54;;;;;;;36.72;20.98;;;;;;;8.47;100.00;101938.25;4936879;29;20024;-71
2021/11/18 00:37:40;;;;;;;31.55;19.60;;;;;;;8.30;100.00;101939.81;4937238;29;20036;-70
2021/11/18 00:40:38;;;;;;;29.55;19.02;;;;;;;8.27;100.00;101939.75;4937014;29;20155;-70
2021/11/18 00:43:25;;;;;;;26.83;17.73;;;;;;;8.32;100.00;101930.22;4936342;29;20469;-70
2021/11/18 00:46:11;;;;;;;30.92;18.67;;;;;;;8.26;100.00;101929.28;4922525;29;20032;-70
2021/11/18 00:48:57;;;;;;;27.65;17.70;;;;;;;8.12;100.00;101928.25;4935733;29;20090;-70
2021/11/18 00:51:43;;;;;;;30.33;18.42;;;;;;;8.10;100.00;101923.00;4927221;29;20047;-69
2021/11/18 00:54:29;;;;;;;30.52;18.00;;;;;;;7.84;100.00;101923.53;4939634;29;20039;-70
2021/11/18 00:57:15;;;;;;;32.88;19.75;;;;;;;7.53;100.00;101923.97;4940306;29;20039;-70
2021/11/18 01:00:06;;;;;;;66.57;36.47;;;;;;;8.12;100.00;101923.03;4938456;29;20450;-70
2021/11/18 01:02:53;;;;;;;45.88;27.13;;;;;;;8.15;100.00;101925.66;4939207;29;20418;-70
2021/11/18 01:05:42;;;;;;;35.70;21.73;;;;;;;7.94;100.00;101920.16;4938761;29;20363;-70
2021/11/18 01:08:28;;;;;;;31.70;20.38;;;;;;;8.04;100.00;101916.84;4939647;29;20080;-68
2021/11/18 01:11:19;;;;;;;36.72;19.98;;;;;;;8.06;100.00;101908.16;4939902;29;20458;-68
2021/11/18 01:14:07;;;;;;;31.85;19.63;;;;;;;8.18;100.00;101903.09;4924816;29;20435;-68
2021/11/18 01:16:53;;;;;;;34.38;20.83;;;;;;;8.50;100.00;101904.31;4939043;29;20031;-68
2021/11/18 01:19:41;;;;;;;35.92;20.95;;;;;;;7.90;100.00;101907.94;4939885;29;20347;-67
2021/11/18 01:22:27;;;;;;;50.60;27.50;;;;;;;7.69;100.00;101910.28;4925674;29;20032;-67
2021/11/18 01:25:14;;;;;;;57.90;32.22;;;;;;;8.10;100.00;101902.13;4939791;29;20363;-68
2021/11/18 01:28:00;;;;;;;42.50;25.27;;;;;;;8.48;100.00;101902.56;4939238;29;20024;-68
2021/11/18 01:30:46;;;;;;;38.08;23.20;;;;;;;8.36;100.00;101902.44;4926205;29;20043;-68
2021/11/18 01:33:32;;;;;;;43.22;26.92;;;;;;;8.08;100.00;101898.59;4940149;29;20454;-69
2021/11/18 01:36:18;;;;;;;37.47;23.05;;;;;;;7.94;100.00;101897.56;4939284;29;20042;-67
2021/11/18 01:39:05;;;;;;;40.53;23.98;;;;;;;8.19;100.00;101903.94;4938643;29;20378;-68
2021/11/18 01:41:51;;;;;;;35.50;22.15;;;;;;;8.39;100.00;101900.72;4925448;29;20469;-68
2021/11/18 01:44:42;;;;;;;42.15;22.63;;;;;;;7.75;100.00;101899.91;4924841;29;20036;-68
2021/11/18 01:47:28;;;;;;;33.25;21.63;;;;;;;8.31;100.00;101893.66;4938128;29;20103;-68
2021/11/18 01:50:18;;;;;;;33.30;20.30;;;;;;;8.27;100.00;101899.72;4937815;29;20038;-68
2021/11/18 01:53:08;;;;;;;38.05;24.33;;;;;;;8.41;100.00;101898.13;4925229;29;20031;-68
2021/11/18 01:55:54;;;;;;;37.47;23.33;;;;;;;8.24;100.00;101904.91;4938157;29;20034;-68
2021/11/18 01:58:42;;;;;;;45.85;26.10;;;;;;;7.52;100.00;101909.19;4938713;29;20318;-68
2021/11/18 02:01:28;;;;;;;43.00;25.70;;;;;;;7.78;100.00;101910.41;4938408;29;20031;-67
2021/11/18 02:04:17;;;;;;;42.25;24.70;;;;;;;8.04;100.00;101909.84;4939462;29;20028;-69
2021/11/18 02:07:07;;;;;;;46.08;25.88;;;;;;;8.13;100.00;101909.09;4937868;29;20027;-69
2021/11/18 02:09:53;;;;;;;39.53;25.15;;;;;;;8.41;100.00;101903.34;4938551;29;20028;-68
2021/11/18 02:12:39;;;;;;;40.78;24.15;;;;;;;8.22;100.00;101904.91;4938658;29;20406;-69
2021/11/18 02:15:29;;;;;;;40.63;25.58;;;;;;;8.76;100.00;101901.97;4925006;29;20079;-69
2021/11/18 02:18:26;;;;;;;53.35;29.17;;;;;;;8.33;100.00;101908.47;4924116;29;20031;-68
2021/11/18 02:21:14;;;;;;;57.53;32.17;;;;;;;8.63;100.00;101903.56;4937326;29;20063;-68
2021/11/18 02:24:03;;;;;;;55.90;30.88;;;;;;;8.18;100.00;101903.09;4937333;29;20035;-68
2021/11/18 02:26:50;;;;;;;56.95;29.20;;;;;;;8.61;100.00;101901.81;4937055;29;20429;-68
2021/11/18 02:29:36;;;;;;;48.25;27.77;;;;;;;8.57;100.00;101900.88;4937341;29;20027;-69
2021/11/18 02:32:26;;;;;;;56.03;29.15;;;;;;;8.40;100.00;101901.63;4939095;29;20414;-69
2021/11/18 02:35:15;;;;;;;49.28;27.48;;;;;;;7.83;100.00;101904.38;4937354;29;20098;-68
2021/11/18 02:38:00;;;;;;;54.35;29.23;;;;;;;8.21;100.00;101902.28;4937190;29;20032;-69
2021/11/18 02:40:47;;;;;;;55.90;30.67;;;;;;;8.40;100.00;101899.00;4937089;29;20028;-69
2021/11/18 02:43:32;;;;;;;56.08;29.73;;;;;;;7.96;100.00;101900.22;4937181;29;20468;-69
2021/11/18 02:46:19;;;;;;;55.15;30.58;;;;;;;8.35;100.00;101911.09;4938323;29;20120;-68
2021/11/18 02:49:05;;;;;;;56.05;28.45;;;;;;;8.18;100.00;101896.97;4937438;29;20114;-67
2021/11/18 02:51:51;;;;;;;48.15;26.48;;;;;;;8.36;100.00;101892.00;4938255;29;20106;-68
2021/11/18 02:54:38;;;;;;;45.17;26.30;;;;;;;8.42;100.00;101889.44;4937514;29;20470;-67
2021/11/18 02:57:25;;;;;;;51.47;27.88;;;;;;;8.65;100.00;101893.16;4937249;29;20102;-67
2021/11/18 03:00:17;;;;;;;49.72;27.77;;;;;;;8.09;100.00;101889.94;4937299;29;20055;-67
2021/11/18 03:03:03;;;;;;;44.78;24.55;;;;;;;8.22;100.00;101893.56;4937083;29;20024;-68
2021/11/18 03:05:49;;;;;;;37.08;23.15;;;;;;;8.47;100.00;101892.94;4922747;29;20086;-68
2021/11/18 03:08:35;;;;;;;35.05;22.23;;;;;;;8.46;100.00;101892.09;4936902;29;20043;-69
2021/11/18 03:11:24;;;;;;;37.05;22.40;;;;;;;8.64;100.00;101889.63;4938391;29;20076;-68
2021/11/18 03:14:09;;;;;;;39.83;23.40;;;;;;;8.62;100.00;101885.28;4937205;29;20052;-68
2021/11/18 03:16:56;;;;;;;34.83;23.85;;;;;;;8.85;100.00;101892.44;4937797;29;20105;-68
2021/11/18 03:19:42;;;;;;;37.47;23.42;;;;;;;9.00;100.00;101884.72;4922557;29;20036;-68
2021/11/18 03:22:28;;;;;;;34.22;22.05;;;;;;;8.89;100.00;101888.97;4937591;29;20458;-68
2021/11/18 03:25:18;;;;;;;32.60;20.10;;;;;;;9.01;100.00;101886.47;4938041;29;20036;-68
2021/11/18 03:28:05;;;;;;;32.28;19.42;;;;;;;8.85;100.00;101896.81;4936841;29;20039;-68
2021/11/18 03:30:52;;;;;;;30.25;19.85;;;;;;;8.87;100.00;101893.34;4936313;29;20031;-68
2021/11/18 03:33:44;;;;;;;33.08;19.27;;;;;;;8.70;100.00;101897.56;4936297;29;20126;-68
2021/11/18 03:36:31;;;;;;;28.23;17.08;;;;;;;8.87;100.00;101897.69;4923166;29;20043;-68
2021/11/18 03:39:18;;;;;;;28.77;17.17;;;;;;;8.92;100.00;101898.59;4937520;29;20054;-68
2021/11/18 03:42:07;;;;;;;28.75;16.08;;;;;;;9.16;100.00;101907.50;4936408;29;20020;-68
2021/11/18 03:44:56;;;;;;;28.10;15.48;;;;;;;8.76;100.00;101902.81;4936290;29;20028;-68
2021/11/18 03:47:42;;;;;;;24.83;14.05;;;;;;;9.02;100.00;101897.81;4937272;29;20454;-68
2021/11/18 03:50:28;;;;;;;26.33;14.25;;;;;;;9.04;100.00;101896.06;4937371;29;20044;-68
2021/11/18 03:53:15;;;;;;;23.45;12.82;;;;;;;8.77;100.00;101906.31;4935963;29;20032;-68
2021/11/18 03:56:09;;;;;;;22.75;12.50;;;;;;;8.93;100.00;101905.56;4936204;29;20139;-68
2021/11/18 03:58:55;;;;;;;20.08;12.38;;;;;;;8.61;100.00;101912.25;4936143;29;20055;-68
2021/11/18 04:01:43;;;;;;;20.02;11.98;;;;;;;8.23;100.00;101911.88;4936272;29;20059;-68
2021/11/18 04:04:34;;;;;;;17.35;11.77;;;;;;;8.47;100.00;101906.91;4936365;29;20046;-69
2021/11/18 04:07:20;;;;;;;19.08;12.05;;;;;;;8.18;100.00;101907.41;4936463;29;20035;-68
2021/11/18 04:10:08;;;;;;;20.38;12.32;;;;;;;8.24;100.00;101916.22;4937558;29;20027;-68
2021/11/18 04:12:54;;;;;;;23.67;12.90;;;;;;;8.31;100.00;101914.53;4935715;29;20134;-68
2021/11/18 04:15:42;;;;;;;18.23;11.95;;;;;;;8.14;100.00;101916.06;4935381;29;20537;-68
2021/11/18 04:18:28;;;;;;;19.75;12.07;;;;;;;8.26;100.00;101916.25;4935610;29;20027;-68
2021/11/18 04:21:14;;;;;;;19.85;11.95;;;;;;;8.41;100.00;101914.66;4936364;29;20031;-67
2021/11/18 04:24:03;;;;;;;20.15;12.40;;;;;;;8.19;100.00;101915.25;4936437;29;20370;-68
2021/11/18 04:26:49;;;;;;;20.30;12.05;;;;;;;7.88;100.00;101918.38;4940021;29;20043;-68
2021/11/18 04:29:35;;;;;;;20.67;11.48;;;;;;;7.47;100.00;101926.53;4940118;29;20032;-67
2021/11/18 04:32:25;;;;;;;25.77;12.35;;;;;;;7.50;100.00;101924.81;4939379;29;20430;-68
2021/11/18 04:35:12;;;;;;;18.40;12.20;;;;;;;7.62;100.00;101926.72;4939550;29;20426;-68
2021/11/18 04:37:58;;;;;;;23.30;13.50;;;;;;;7.66;100.00;101928.50;4939665;29;20109;-67
2021/11/18 04:40:45;;;;;;;24.38;14.77;;;;;;;7.59;100.00;101924.94;4927143;29;20082;-68
2021/11/18 04:43:31;;;;;;;23.60;13.60;;;;;;;7.80;100.00;101926.97;4940035;29;20370;-68
2021/11/18 04:46:17;;;;;;;21.65;13.45;;;;;;;7.70;100.00;101922.47;4939799;29;20083;-68
2021/11/18 04:49:04;;;;;;;22.42;13.85;;;;;;;7.80;100.00;101929.56;4940075;29;20032;-68
2021/11/18 04:51:50;;;;;;;20.60;13.80;;;;;;;8.05;100.00;101927.28;4939890;29;20039;-68
2021/11/18 04:54:36;;;;;;;23.02;12.68;;;;;;;8.30;100.00;101926.75;4939453;29;20024;-67
2021/11/18 04:57:28;;;;;;;22.30;13.55;;;;;;;7.87;100.00;101927.06;4940558;29;20350;-68
2021/11/18 05:00:22;;;;;;;19.73;13.02;;;;;;;8.14;100.00;101931.72;4940061;29;20055;-68
2021/11/18 05:03:09;;;;;;;26.05;15.38;;;;;;;8.28;100.00;101925.84;4939703;29;20525;-68
2021/11/18 05:05:56;;;;;;;29.65;15.90;;;;;;;8.16;100.00;101930.88;4938187;29;20114;-68
2021/11/18 05:08:42;;;;;;;27.23;14.90;;;;;;;8.09;100.00;101931.69;4939422;29;20366;-68
2021/11/18 05:11:28;;;;;;;21.52;14.23;;;;;;;8.30;100.00;101923.25;4938796;29;20031;-69
2021/11/18 05:14:14;;;;;;;32.20;17.70;;;;;;;7.77;100.00;101935.63;4938840;29;20382;-68
2021/11/18 05:16:59;;;;;;;28.20;16.35;;;;;;;7.92;100.00;101935.81;4939519;29;20027;-68
2021/11/18 05:19:45;;;;;;;28.83;17.35;;;;;;;8.11;100.00;101936.91;4939884;29;20055;-68
2021/11/18 05:22:31;;;;;;;27.73;16.83;;;;;;;8.14;100.00;101936.94;4939869;29;20371;-69
2021/11/18 05:25:20;;;;;;;29.50;15.43;;;;;;;7.99;100.00;101947.19;4925920;29;20039;-68
2021/11/18 05:28:06;;;;;;;23.55;14.73;;;;;;;8.01;100.00;101945.50;4938711;29;20024;-68
2021/11/18 05:30:52;;;;;;;27.65;14.77;;;;;;;8.05;100.00;101947.28;4938292;29;20035;-68
2021/11/18 05:33:38;;;;;;;23.92;13.95;;;;;;;7.52;100.00;101953.53;4938702;29;20510;-68
2021/11/18 05:36:24;;;;;;;23.80;14.88;;;;;;;7.39;100.00;101956.81;4938301;29;20057;-69
2021/11/18 05:39:10;;;;;;;24.80;15.20;;;;;;;7.71;100.00;101959.00;4938481;29;20028;-72
2021/11/18 05:41:56;;;;;;;23.48;16.17;;;;;;;8.01;100.00;101959.44;4938211;29;20036;-68
2021/11/18 05:44:42;;;;;;;26.60;18.00;;;;;;;8.19;100.00;101961.38;4939518;29;20024;-68
2021/11/18 05:47:28;;;;;;;28.58;18.13;;;;;;;8.15;100.00;101967.41;4938807;29;20179;-68
2021/11/18 05:50:15;;;;;;;25.63;15.60;;;;;;;8.26;100.00;101968.44;4924606;29;20407;-69
2021/11/18 05:53:01;;;;;;;22.27;15.20;;;;;;;8.36;100.00;101972.94;4938074;29;20035;-69
2021/11/18 05:55:47;;;;;;;26.27;15.85;;;;;;;8.11;100.00;101971.72;4925349;29;20034;-68
2021/11/18 05:58:34;;;;;;;21.23;14.27;;;;;;;8.35;100.00;101981.59;4939134;29;20098;-68
2021/11/18 06:01:24;;;;;;;24.48;15.10;;;;;;;7.99;100.00;101989.84;4938014;29;20336;-68
2021/11/18 06:04:10;;;;;;;27.35;16.20;;;;;;;7.36;100.00;101998.47;4938273;29;20046;-67
2021/11/18 06:06:56;;;;;;;30.05;17.83;;;;;;;7.45;100.00;101998.59;4923573;29;20038;-67
2021/11/18 06:09:42;;;;;;;22.30;15.57;;;;;;;7.61;100.00;102004.09;4939105;29;20395;-68
2021/11/18 06:12:27;;;;;;;27.77;15.40;;;;;;;7.07;100.00;102013.63;4937365;29;20051;-68
2021/11/18 06:15:14;;;;;;;25.15;15.48;;;;;;;7.48;100.00;102007.34;4937927;29;20036;-68
2021/11/18 06:18:00;;;;;;;32.92;18.88;;;;;;;6.95;100.00;102021.22;4937299;29;20031;-69
2021/11/18 06:20:46;;;;;;;33.72;19.67;;;;;;;7.16;100.00;102023.34;4937626;29;20510;-68
2021/11/18 06:23:32;;;;;;;32.60;20.45;;;;;;;6.70;100.00;102029.44;4938630;29;20055;-68
2021/11/18 06:26:18;;;;;;;33.45;21.38;;;;;;;6.92;100.00;102030.72;4937112;29;20039;-68
2021/11/18 06:29:04;;;;;;;31.95;20.05;;;;;;;6.88;100.00;102028.91;4937658;29;20047;-68
2021/11/18 06:31:53;;;;;;;36.25;21.88;;;;;;;7.30;100.00;102034.84;4939029;29;20063;-68
2021/11/18 06:34:41;;;;;;;39.00;21.58;;;;;;;7.63;100.00;102028.44;4924675;29;20359;-68
2021/11/18 06:37:27;;;;;;;34.65;21.35;;;;;;;7.24;100.00;102035.63;4937327;29;20027;-68
2021/11/18 06:40:14;;;;;;;36.17;22.23;;;;;;;7.55;100.00;102037.03;4937976;29;20038;-68
2021/11/18 06:43:02;;;;;;;37.70;22.45;;;;;;;7.44;100.00;102035.97;4936832;29;20031;-68
2021/11/18 06:45:49;;;;;;;37.72;23.52;;;;;;;7.40;100.00;102034.16;4936608;29;20032;-68
2021/11/18 06:48:35;;;;;;;37.55;22.77;;;;;;;7.66;100.00;102025.00;4936696;29;20576;-68
2021/11/18 06:51:23;;;;;;;41.85;24.35;;;;;;;7.46;100.00;102029.03;4923223;29;20458;-69
2021/11/18 06:54:12;;;;;;;35.72;21.60;;;;;;;7.47;100.00;102026.47;4923380;29;20055;-68
2021/11/18 06:56:58;;;;;;;35.95;21.60;;;;;;;6.76;100.00;102036.50;4937471;29;20463;-69
2021/11/18 06:59:45;;;;;;;32.40;20.73;;;;;;;7.51;100.00;102024.78;4937812;29;20363;-69
2021/11/18 07:02:31;;;;;;;34.42;20.92;;;;;;;7.48;100.00;102033.41;4938068;29;20027;-68
2021/11/18 07:05:18;;;;;;;34.60;21.48;;;;;;;8.18;100.00;102028.38;4937831;29;20067;-68
2021/11/18 07:08:05;;;;;;;35.40;21.02;;;;;;;8.08;100.00;102015.19;4938109;29;20041;-69
2021/11/18 07:10:51;;;;;;;38.83;23.48;;;;;;;7.73;100.00;102014.72;4936786;29;20363;-68
2021/11/18 07:13:39;;;;;;;42.95;26.08;;;;;;;7.83;100.00;102016.56;4937572;29;20347;-68
2021/11/18 07:16:25;;;;;;;41.25;25.80;;;;;;;7.54;100.00;102019.59;4937058;29;20446;-68
2021/11/18 07:19:11;;;;;;;45.90;26.77;;;;;;;7.84;100.00;102015.72;4924495;29;20051;-68
2021/11/18 07:21:58;;;;;;;39.28;24.00;;;;;;;8.26;100.00;102020.66;4937755;29;20031;-68
2021/11/18 07:24:44;;;;;;;42.08;26.55;;;;;;;8.39;100.00;102015.63;4936295;29;20027;-68
2021/11/18 07:27:29;;;;;;;48.00;28.50;;;;;;;7.94;100.00;102017.63;4936483;29;20039;-69
2021/11/18 07:30:17;;;;;;;49.83;28.35;;;;;;;8.17;100.00;102012.69;4937302;29;20031;-68
2021/11/18 07:33:04;;;;;;;56.72;33.55;;;;;;;9.16;100.00;102005.97;4936832;29;20023;-69
2021/11/18 07:35:52;;;;;;;47.50;26.38;;;;;;;9.26;100.00;102011.31;4923352;29;20027;-69
2021/11/18 07:38:38;;;;;;;46.08;27.00;;;;;;;9.61;100.00;102014.19;4909690;29;20378;-69
2021/11/18 07:41:24;;;;;;;45.38;26.42;;;;;;;9.67;100.00;102014.22;4937456;29;20035;-68
2021/11/18 07:44:10;;;;;;;41.65;25.25;;;;;;;10.19;100.00;102021.56;4938278;29;20469;-69
2021/11/18 07:46:56;;;;;;;46.60;24.83;;;;;;;10.10;100.00;102021.50;4937331;29;20062;-68
2021/11/18 07:49:41;;;;;;;41.28;25.80;;;;;;;10.31;100.00;102016.38;4935901;29;20031;-69
2021/11/18 07:52:27;;;;;;;42.25;25.33;;;;;;;10.22;100.00;102020.69;4935636;29;20027;-68
2021/11/18 07:55:16;;;;;;;45.92;26.50;;;;;;;10.11;100.00;102023.25;4937075;29;20019;-69
2021/11/18 07:58:03;;;;;;;46.60;26.95;;;;;;;10.65;100.00;102020.00;4935633;29;20127;-68
2021/11/18 08:00:50;;;;;;;37.90;24.27;;;;;;;10.81;100.00;102009.53;4935914;29;20039;-69
2021/11/18 08:03:37;;;;;;;29.98;20.15;;;;;;;10.25;100.00;102011.13;4937039;29;20055;-69
2021/11/18 08:06:26;;;;;;;36.80;22.35;;;;;;;10.56;100.00;102012.09;4922906;29;20081;-68
2021/11/18 08:09:13;;;;;;;33.60;20.83;;;;;;;10.86;100.00;102020.03;4935869;29;20059;-69
2021/11/18 08:12:00;;;;;;;34.35;21.33;;;;;;;10.86;100.00;102015.69;4935481;29;20036;-69
2021/11/18 08:14:46;;;;;;;30.60;20.02;;;;;;;11.08;100.00;102019.19;4935759;29;20031;-68
2021/11/18 08:17:32;;;;;;;31.45;19.88;;;;;;;11.52;100.00;102012.19;4936909;29;20036;-68
2021/11/18 08:20:18;;;;;;;30.77;19.40;;;;;;;11.53;100.00;102016.59;4937240;29;20032;-68
2021/11/18 08:23:05;;;;;;;28.27;18.27;;;;;;;11.64;100.00;102014.84;4935508;29;20084;-69
2021/11/18 08:25:51;;;;;;;26.25;15.10;;;;;;;11.57;100.00;102020.97;4936026;29;20032;-68
2021/11/18 08:28:37;;;;;;;17.90;12.52;;;;;;;11.58;100.00;102020.94;4936891;29;20518;-68
2021/11/18 08:31:23;;;;;;;19.15;12.45;;;;;;;11.99;100.00;102023.53;4936067;29;20042;-68
2021/11/18 08:34:10;;;;;;;21.33;12.98;;;;;;;12.07;100.00;102022.66;4922531;29;20024;-69
2021/11/18 08:36:56;;;;;;;23.55;12.10;;;;;;;11.56;100.00;102016.56;4935423;29;20469;-69
2021/11/18 08:39:43;;;;;;;24.08;11.80;;;;;;;12.17;100.00;102018.25;4936001;29;20119;-68
2021/11/18 08:42:29;;;;;;;17.80;11.77;;;;;;;12.21;100.00;102012.97;4935923;29;20079;-68
2021/11/18 08:45:15;;;;;;;16.05;11.35;;;;;;;11.84;100.00;102011.31;4936638;29;20032;-68
2021/11/18 08:48:04;;;;;;;17.38;11.30;;;;;;;12.30;100.00;102015.53;4936539;29;20023;-69
2021/11/18 08:50:52;;;;;;;19.60;11.63;;;;;;;12.17;100.00;102026.13;4935902;29;20363;-69
2021/11/18 08:53:41;;;;;;;21.15;12.23;;;;;;;12.20;100.00;102024.34;4935342;29;20036;-68
2021/11/18 08:56:27;;;;;;;18.30;11.57;;;;;;;12.44;100.00;102018.13;4922558;29;20050;-68
2021/11/18 08:59:13;;;;;;;19.02;11.82;;;;;;;12.36;100.00;102022.53;4935590;29;20032;-68
2021/11/18 09:02:04;;;;;;;22.48;12.40;;;;;;;12.25;100.00;102017.31;4935315;29;20036;-68
2021/11/18 09:04:50;;;;;;;21.10;11.95;;;;;;;12.03;100.00;102022.66;4935036;29;20032;-69
2021/11/18 09:07:37;;;;;;;18.58;12.57;;;;;;;11.84;100.00;102029.72;4937154;29;20024;-68
2021/11/18 09:10:23;;;;;;;19.45;12.77;;;;;;;11.85;100.00;102022.72;4936253;29;20474;-69
2021/11/18 09:13:10;;;;;;;20.27;13.35;;;;;;;11.95;100.00;102029.69;4938818;29;20391;-69
2021/11/18 09:15:56;;;;;;;18.52;12.68;;;;;;;12.19;100.00;102027.88;4938648;29;20039;-69
2021/11/18 09:18:43;;;;;;;20.73;13.15;;;;;;;12.36;100.00;102025.16;4938527;29;20450;-68
2021/11/18 09:21:29;;;;;;;32.05;13.82;;;;;;;11.90;100.00;102032.31;4938997;29;20476;-68
2021/11/18 09:24:20;;;;;;;18.65;12.50;;;;;;;11.39;100.00;102024.47;4938470;29;20044;-68
2021/11/18 09:27:19;;;;;;;18.25;12.32;;;;;;;11.55;100.00;102018.34;4925256;29;20023;-68
2021/11/18 09:30:08;;;;;;;18.40;12.30;;;;;;;11.67;100.00;102015.75;4938404;29;20355;-69
2021/11/18 09:32:55;;;;;;;19.85;13.55;;;;;;;12.01;100.00;102011.28;4938518;29;20045;-69
2021/11/18 09:35:48;;;;;;;22.13;13.75;;;;;;;11.54;100.00;102002.59;4938259;29;20162;-68
2021/11/18 09:38:40;;;;;;;23.23;14.18;;;;;;;12.11;100.00;102003.38;4926032;29;20032;-69
2021/11/18 09:41:26;;;;;;;23.92;14.57;;;;;;;11.14;100.00;101993.88;4938233;29;20039;-70
2021/11/18 09:44:46;;;;;;;19.98;14.13;;;;;;;11.73;100.00;101989.47;4939649;29;20037;-69
2021/11/18 09:48:26;;;;;;;22.25;14.93;;;;;;;12.15;100.00;101998.97;4922852;29;20140;-69
2021/11/18 09:51:36;;;;;;;22.38;14.43;;;;;;;11.93;100.00;101992.91;4861581;29;20025;-69
2021/11/18 09:54:32;;;;;;;24.58;15.40;;;;;;;12.44;100.00;101990.09;4938191;29;20028;-69
2021/11/18 09:57:35;;;;;;;20.70;13.25;;;;;;;12.36;100.00;101983.13;4937643;29;20032;-68
2021/11/18 10:00:26;;;;;;;19.77;12.35;;;;;;;12.51;100.00;101975.16;4937800;29;20449;-68
2021/11/18 10:03:30;;;;;;;19.45;12.30;;;;;;;12.52;100.00;101980.41;4938330;29;20027;-69
2021/11/18 10:06:22;;;;;;;20.50;13.27;;;;;;;12.56;100.00;101981.25;4937894;29;20434;-70
2021/11/18 10:09:10;;;;;;;18.65;12.82;;;;;;;12.67;100.00;101977.72;4925442;29;20110;-69
2021/11/18 10:11:59;;;;;;;19.15;11.77;;;;;;;13.38;100.00;101980.69;4938633;29;20357;-69
2021/11/18 10:14:56;;;;;;;22.25;13.23;;;;;;;13.21;100.00;101979.97;4937876;29;20034;-68
2021/11/18 10:17:50;;;;;;;22.15;13.38;;;;;;;12.90;100.00;101985.44;4938146;29;20046;-69
2021/11/18 10:20:38;;;;;;;17.52;12.90;;;;;;;12.45;100.00;101975.19;4938381;29;20127;-69
2021/11/18 10:23:24;;;;;;;20.58;13.18;;;;;;;12.38;100.00;101970.84;4936474;29;20402;-69
2021/11/18 10:26:16;;;;;;;34.75;21.13;;;;;;;12.43;100.00;101974.31;4937504;29;20454;-69
2021/11/18 10:29:17;;;;;;;21.85;12.10;;;;;;;12.48;100.00;101970.81;4937968;29;20027;-69
2021/11/18 10:32:06;;;;;;;20.95;13.68;;;;;;;12.16;100.00;101966.56;4938090;29;20031;-69
2021/11/18 10:35:08;;;;;;;24.48;14.32;;;;;;;12.70;100.00;101961.88;4937511;29;20110;-69
2021/11/18 10:38:13;;;;;;;25.27;15.05;;;;;;;12.77;100.00;101955.72;4937713;29;20198;-68
2021/11/18 10:41:04;;;;;;;27.40;15.93;;;;;;;12.53;100.00;101962.88;4923990;29;20027;-68
2021/11/18 10:44:21;;;;;;;24.80;15.40;;;;;;;12.83;100.00;101950.41;4924854;29;20035;-69
2021/11/18 10:47:13;;;;;;;22.73;14.27;;;;;;;12.13;100.00;101958.72;4923871;29;20510;-69
2021/11/18 10:50:33;;;;;;;22.88;13.88;;;;;;;12.54;100.00;101967.28;4936924;29;20454;-69
2021/11/18 10:53:22;;;;;;;20.98;13.73;;;;;;;12.45;100.00;101959.41;4925072;29;20028;-69
2021/11/18 10:56:42;;;;;;;19.52;12.95;;;;;;;12.24;100.00;101957.78;4925073;29;20032;-68
2021/11/18 10:59:41;;;;;;;20.08;14.65;;;;;;;11.87;100.00;101961.44;4900667;29;20039;-68
2021/11/18 11:02:33;;;;;;;26.00;15.80;;;;;;;12.30;100.00;101957.72;4937670;29;20036;-68
2021/11/18 11:05:36;;;;;;;25.20;15.88;;;;;;;12.55;100.00;101959.38;4937400;29;20043;-68
2021/11/18 11:08:29;;;;;;;24.27;15.93;;;;;;;12.92;100.00;101960.88;4937621;29;20059;-69
2021/11/18 11:11:43;;;;;;;24.88;15.68;;;;;;;12.89;100.00;101962.63;4936282;29;20098;-69
2021/11/18 11:14:53;;;;;;;25.20;15.30;;;;;;;12.55;100.00;101963.75;4937075;29;20044;-69
2021/11/18 11:17:45;;;;;;;21.55;14.75;;;;;;;13.07;100.00;101955.50;4938053;29;20425;-68
2021/11/18 11:20:40;;;;;;;27.90;16.30;;;;;;;12.90;100.00;101962.63;4937491;29;20570;-68
2021/11/18 11:24:00;;;;;;;21.92;13.60;;;;;;;12.59;100.00;101974.25;4936400;29;20059;-68
2021/11/18 11:27:17;;;;;;;22.90;13.15;;;;;;;13.03;100.00;101966.94;4937691;29;20123;-68
2021/11/18 11:30:45;;;;;;;19.92;12.35;;;;;;;12.57;100.00;101960.22;4922183;29;20118;-69
2021/11/18 11:33:54;;;;;;;19.05;11.98;;;;;;;12.52;100.00;101962.00;4936837;29;20063;-69
2021/11/18 11:36:47;;;;;;;19.73;12.27;;;;;;;13.00;100.00;101951.19;4935332;29;20031;-68
2021/11/18 11:39:32;;;;;;;20.88;12.93;;;;;;;12.68;100.00;101945.25;4935986;29;20115;-68
2021/11/18 11:42:40;;;;;;;20.73;14.15;;;;;;;12.18;100.00;101947.28;4937211;29;20031;-68
2021/11/18 11:45:52;;;;;;;25.20;15.20;;;;;;;12.97;100.00;101943.31;4936222;29;20031;-68
2021/11/18 11:48:56;;;;;;;24.20;14.07;;;;;;;12.57;100.00;101941.81;4935990;29;20024;-69
2021/11/18 11:52:08;;;;;;;25.08;14.57;;;;;;;12.43;100.00;101934.91;4937118;29;20086;-68
2021/11/18 11:55:22;;;;;;;20.15;12.82;;;;;;;12.13;100.00;101928.03;4936037;29;20023;-69
2021/11/18 11:58:38;;;;;;;21.20;13.30;;;;;;;12.16;100.00;101937.66;4937425;29;20046;-69
2021/11/18 12:01:49;;;;;;;20.77;14.02;;;;;;;11.96;100.00;101931.63;4936387;29;20122;-69
2021/11/18 12:04:38;;;;;;;19.27;12.55;;;;;;;12.29;100.00;101929.72;4936513;29;20043;-68
2021/11/18 12:07:39;;;;;;;20.30;13.00;;;;;;;12.59;100.00;101929.56;4936253;29;20024;-69
2021/11/18 12:10:36;;;;;;;23.08;13.95;;;;;;;12.27;100.00;101927.97;4937520;29;20035;-68
2021/11/18 12:13:41;;;;;;;23.30;14.52;;;;;;;12.29;100.00;101929.72;4922116;29;20055;-69
2021/11/18 12:16:46;;;;;;;23.70;14.68;;;;;;;12.36;100.00;101939.31;4935124;29;20126;-68
2021/11/18 12:20:02;;;;;;;23.92;14.77;;;;;;;12.11;100.00;101935.06;4936074;29;20082;-69
2021/11/18 12:22:59;;;;;;;27.35;16.10;;;;;;;12.45;100.00;101920.88;4935990;29;20067;-69
2021/11/18 12:25:48;;;;;;;18.98;13.40;;;;;;;12.62;100.00;101924.25;4935551;29;20091;-68
2021/11/18 12:28:38;;;;;;;24.50;14.70;;;;;;;12.51;100.00;101920.84;4937187;29;20023;-68
2021/11/18 12:31:30;;;;;;;22.70;14.07;;;;;;;12.38;100.00;101918.28;4935741;29;20046;-69
2021/11/18 12:34:54;;;;;;;23.50;14.27;;;;;;;12.31;100.00;101914.81;4923050;29;20363;-69
2021/11/18 12:37:46;;;;;;;21.00;13.07;;;;;;;12.16;100.00;101914.00;4937159;29;20028;-68
2021/11/18 12:41:04;;;;;;;20.50;12.55;;;;;;;12.32;100.00;101913.94;4936596;29;20043;-70
2021/11/18 12:44:31;;;;;;;19.27;12.10;;;;;;;12.56;100.00;101905.91;4936396;29;20047;-68
2021/11/18 12:47:41;;;;;;;18.80;12.65;;;;;;;12.58;100.00;101906.75;4926156;29;20038;-68
2021/11/18 12:50:53;;;;;;;19.42;12.27;;;;;;;12.15;100.00;101905.28;4925271;29;20031;-69
2021/11/18 12:53:44;;;;;;;18.23;11.80;;;;;;;12.55;100.00;101901.53;4920580;29;20043;-69